Time;durP1;ratioP1;P1;durP2;ratioP2;P2;SDS_P1;SDS_P2;PMS_P1;PMS_P2;Temp;Humidity;BMP_temperature;BMP_pressure;BME280_temperature;BME280_humidity;BME280_pressure;Samples;Min_cycle;Max_cycle;Signal;HPM_P1;HPM_P2
2021/09/26 00:02:02;;;;;;;42.17;22.88;;;;;;;;;;5031866;28;20028;-64
2021/09/26 00:04:28;;;;;;;39.78;22.90;;;;;;;;;;5031970;28;20030;-62
2021/09/26 00:06:54;;;;;;;40.97;25.70;;;;;;;;;;5031966;28;20030;-64
2021/09/26 00:09:20;;;;;;;39.63;25.92;;;;;;;;;;5013608;28;20025;-63
2021/09/26 00:11:46;;;;;;;44.67;28.70;;;;;;;;;;5014477;28;20079;-62
2021/09/26 00:14:12;;;;;;;37.47;22.73;;;;;;;;;;5013943;28;20049;-62
2021/09/26 00:16:38;;;;;;;42.33;27.35;;;;;;;;;;5013777;28;20117;-64
2021/09/26 00:19:04;;;;;;;37.63;23.80;;;;;;;;;;5031527;28;20053;-65
2021/09/26 00:21:31;;;;;;;45.42;26.50;;;;;;;;;;5014002;28;20030;-63
2021/09/26 00:23:57;;;;;;;41.50;23.95;;;;;;;;;;5031609;28;20072;-63
2021/09/26 00:26:23;;;;;;;41.58;22.92;;;;;;;;;;5014217;28;20022;-64
2021/09/26 00:28:49;;;;;;;40.88;23.98;;;;;;;;;;5013249;28;20029;-63
2021/09/26 00:31:15;;;;;;;42.33;21.98;;;;;;;;;;5031318;28;20032;-64
2021/09/26 00:33:41;;;;;;;37.58;22.58;;;;;;;;;;5031612;28;20040;-63
2021/09/26 00:36:07;;;;;;;35.72;20.90;;;;;;;;;;5031833;28;20017;-63
2021/09/26 00:38:33;;;;;;;40.70;23.58;;;;;;;;;;5031375;28;20093;-64
2021/09/26 00:40:59;;;;;;;41.67;23.40;;;;;;;;;;5031673;28;20037;-63
2021/09/26 00:43:25;;;;;;;40.63;23.33;;;;;;;;;;5013776;28;20099;-62
2021/09/26 00:45:51;;;;;;;45.28;25.13;;;;;;;;;;5013777;28;20481;-62
2021/09/26 00:48:17;;;;;;;42.72;25.30;;;;;;;;;;5031404;28;20038;-64
2021/09/26 00:50:43;;;;;;;43.63;24.55;;;;;;;;;;5031484;28;20108;-61
2021/09/26 00:53:09;;;;;;;45.05;25.80;;;;;;;;;;5013601;28;20029;-61
2021/09/26 00:55:36;;;;;;;46.17;25.67;;;;;;;;;;5013095;28;20021;-61
2021/09/26 00:58:02;;;;;;;46.85;24.85;;;;;;;;;;5030995;28;20385;-61
2021/09/26 01:00:29;;;;;;;44.10;24.58;;;;;;;;;;5013540;28;20024;-62
2021/09/26 01:02:55;;;;;;;44.78;26.63;;;;;;;;;;5013393;28;20047;-62
2021/09/26 01:05:22;;;;;;;47.63;26.45;;;;;;;;;;5013242;28;20026;-63
2021/09/26 01:08:02;;;;;;;41.33;23.70;;;;;;;;;;5031410;28;20037;-62
2021/09/26 01:10:35;;;;;;;46.53;25.67;;;;;;;;;;5031114;28;20036;-62
2021/09/26 01:13:01;;;;;;;44.40;24.55;;;;;;;;;;5031820;28;20111;-62
2021/09/26 01:15:30;;;;;;;41.92;23.52;;;;;;;;;;5030811;28;20076;-62
2021/09/26 01:18:02;;;;;;;50.58;25.73;;;;;;;;;;5013378;28;20496;-61
2021/09/26 01:20:37;;;;;;;45.38;24.77;;;;;;;;;;5031286;28;20026;-62
2021/09/26 01:23:06;;;;;;;39.88;22.08;;;;;;;;;;5017073;28;20025;-62
2021/09/26 01:25:50;;;;;;;41.78;24.27;;;;;;;;;;5035063;28;20083;-63
2021/09/26 01:28:24;;;;;;;43.20;24.63;;;;;;;;;;5034887;28;20033;-62
2021/09/26 01:30:51;;;;;;;40.90;24.95;;;;;;;;;;5016099;28;20029;-64
2021/09/26 01:33:24;;;;;;;41.35;23.02;;;;;;;;;;5032033;28;20457;-63
2021/09/26 01:36:10;;;;;;;40.47;23.80;;;;;;;;;;4999566;28;20037;-64
2021/09/26 01:38:40;;;;;;;42.35;24.52;;;;;;;;;;5033248;28;20521;-63
2021/09/26 01:41:29;;;;;;;42.22;24.63;;;;;;;;;;5035302;28;20068;-62
2021/09/26 01:43:55;;;;;;;41.83;22.85;;;;;;;;;;5021440;28;20053;-63
2021/09/26 01:46:32;;;;;;;38.05;23.90;;;;;;;;;;5021563;28;20064;-64
2021/09/26 01:48:58;;;;;;;38.40;23.52;;;;;;;;;;5038657;28;20535;-62
2021/09/26 01:51:25;;;;;;;40.20;23.15;;;;;;;;;;5022345;28;20021;-61
2021/09/26 01:53:51;;;;;;;40.05;24.67;;;;;;;;;;5039120;28;20030;-63
2021/09/26 01:56:17;;;;;;;36.20;22.27;;;;;;;;;;5039749;28;20018;-63
2021/09/26 01:58:44;;;;;;;37.67;21.88;;;;;;;;;;5038351;28;20077;-62
2021/09/26 02:01:10;;;;;;;40.47;21.33;;;;;;;;;;5035875;28;20026;-63
2021/09/26 02:03:37;;;;;;;39.50;23.55;;;;;;;;;;5034571;28;20022;-63
2021/09/26 02:06:04;;;;;;;41.60;22.52;;;;;;;;;;5016976;28;20119;-64
2021/09/26 02:08:30;;;;;;;40.05;22.77;;;;;;;;;;5034122;28;20029;-62
2021/09/26 02:10:56;;;;;;;39.97;22.83;;;;;;;;;;5016554;28;20037;-63
2021/09/26 02:13:24;;;;;;;38.53;23.23;;;;;;;;;;5033986;28;20029;-64
2021/09/26 02:15:51;;;;;;;42.33;22.35;;;;;;;;;;5034069;28;20430;-61
2021/09/26 02:18:17;;;;;;;36.80;22.23;;;;;;;;;;5016146;28;20029;-62
2021/09/26 02:20:43;;;;;;;40.13;22.65;;;;;;;;;;5033898;28;20029;-62
2021/09/26 02:23:09;;;;;;;41.10;23.13;;;;;;;;;;5016309;28;20014;-62
2021/09/26 02:25:36;;;;;;;42.00;24.15;;;;;;;;;;5016205;28;20025;-63
2021/09/26 02:28:02;;;;;;;37.88;21.95;;;;;;;;;;5033786;28;20021;-62
2021/09/26 02:30:28;;;;;;;41.83;23.85;;;;;;;;;;5033529;28;20021;-61
2021/09/26 02:32:54;;;;;;;38.78;22.75;;;;;;;;;;5033753;28;20021;-61
2021/09/26 02:35:20;;;;;;;42.40;25.70;;;;;;;;;;5015953;28;20037;-62
2021/09/26 02:37:46;;;;;;;38.33;23.00;;;;;;;;;;5033800;28;20474;-62
2021/09/26 02:40:14;;;;;;;44.05;24.40;;;;;;;;;;5033294;28;20029;-61
2021/09/26 02:42:40;;;;;;;40.95;25.23;;;;;;;;;;5033651;28;20017;-61
2021/09/26 02:45:09;;;;;;;40.45;23.05;;;;;;;;;;5033545;28;20036;-59
2021/09/26 02:47:49;;;;;;;39.08;23.73;;;;;;;;;;5033615;28;20041;-61
2021/09/26 02:50:17;;;;;;;42.03;22.98;;;;;;;;;;5033236;28;20033;-62
2021/09/26 02:52:43;;;;;;;40.80;22.58;;;;;;;;;;5014300;28;20029;-60
2021/09/26 02:55:10;;;;;;;39.08;23.75;;;;;;;;;;5015616;28;20113;-61
2021/09/26 02:57:36;;;;;;;41.75;24.33;;;;;;;;;;5033009;28;20048;-62
2021/09/26 03:00:04;;;;;;;39.80;23.73;;;;;;;;;;5032878;28;20104;-64
2021/09/26 03:02:31;;;;;;;42.60;23.02;;;;;;;;;;5033336;28;20104;-62
2021/09/26 03:04:57;;;;;;;43.33;24.90;;;;;;;;;;5033276;28;20033;-63
2021/09/26 03:07:23;;;;;;;38.72;22.05;;;;;;;;;;5015242;28;20572;-61
2021/09/26 03:09:49;;;;;;;39.30;23.55;;;;;;;;;;5032759;28;20178;-61
2021/09/26 03:12:20;;;;;;;39.30;24.38;;;;;;;;;;5032859;28;20049;-62
2021/09/26 03:14:47;;;;;;;41.65;24.20;;;;;;;;;;5033037;28;20026;-61
2021/09/26 03:17:13;;;;;;;41.35;23.90;;;;;;;;;;5015239;28;20401;-63
2021/09/26 03:19:39;;;;;;;43.08;24.67;;;;;;;;;;5032697;28;20048;-62
2021/09/26 03:22:06;;;;;;;38.60;23.20;;;;;;;;;;5032805;28;20597;-62
2021/09/26 03:24:32;;;;;;;39.95;21.77;;;;;;;;;;5032528;28;20378;-63
2021/09/26 03:27:03;;;;;;;40.70;23.55;;;;;;;;;;5033320;28;20029;-62
2021/09/26 03:29:32;;;;;;;40.33;24.63;;;;;;;;;;5032585;28;20022;-62
2021/09/26 03:31:59;;;;;;;43.08;23.48;;;;;;;;;;5032796;28;20029;-63
2021/09/26 03:34:25;;;;;;;41.55;23.30;;;;;;;;;;5032543;28;20029;-61
2021/09/26 03:36:51;;;;;;;43.05;24.08;;;;;;;;;;5014429;28;20025;-62
2021/09/26 03:39:17;;;;;;;40.47;23.02;;;;;;;;;;5032235;28;20413;-62
2021/09/26 03:41:43;;;;;;;38.42;23.25;;;;;;;;;;5032335;28;20532;-61
2021/09/26 03:44:09;;;;;;;38.15;21.58;;;;;;;;;;5014875;28;20064;-62
2021/09/26 03:46:35;;;;;;;38.65;22.02;;;;;;;;;;5032382;28;20036;-62
2021/09/26 03:49:01;;;;;;;36.67;20.88;;;;;;;;;;5014449;28;20021;-62
2021/09/26 03:51:28;;;;;;;34.38;20.60;;;;;;;;;;5032255;28;20029;-62
2021/09/26 03:53:54;;;;;;;36.40;22.15;;;;;;;;;;5032210;28;20420;-62
2021/09/26 03:56:20;;;;;;;38.10;22.77;;;;;;;;;;5014787;28;20028;-62
2021/09/26 03:58:46;;;;;;;38.67;22.60;;;;;;;;;;5032815;28;20372;-61
2021/09/26 04:01:12;;;;;;;38.20;23.33;;;;;;;;;;5032506;28;20026;-62
2021/09/26 04:03:38;;;;;;;39.50;22.00;;;;;;;;;;5032174;28;20061;-62
2021/09/26 04:06:09;;;;;;;37.55;22.58;;;;;;;;;;5032092;28;20079;-63
2021/09/26 04:08:35;;;;;;;40.15;25.38;;;;;;;;;;5031795;28;20021;-62
2021/09/26 04:11:01;;;;;;;32.58;21.05;;;;;;;;;;5031713;28;20135;-62
2021/09/26 04:13:27;;;;;;;34.40;20.48;;;;;;;;;;5031866;28;20064;-63
2021/09/26 04:15:53;;;;;;;34.38;21.02;;;;;;;;;;5014052;28;20022;-61
2021/09/26 04:18:19;;;;;;;32.90;19.27;;;;;;;;;;5031578;28;20033;-61
2021/09/26 04:20:45;;;;;;;32.47;19.85;;;;;;;;;;5031552;28;20068;-62
2021/09/26 04:23:11;;;;;;;38.47;21.15;;;;;;;;;;5031581;28;20029;-62
2021/09/26 04:25:37;;;;;;;32.88;20.80;;;;;;;;;;5031858;28;20021;-62
2021/09/26 04:28:03;;;;;;;32.13;19.17;;;;;;;;;;5031616;28;20061;-62
2021/09/26 04:30:29;;;;;;;29.60;18.52;;;;;;;;;;5031135;28;20064;-63
2021/09/26 04:32:55;;;;;;;30.50;19.63;;;;;;;;;;5013623;28;20021;-62
2021/09/26 04:35:21;;;;;;;28.80;18.45;;;;;;;;;;5031316;28;20029;-63
2021/09/26 04:37:47;;;;;;;32.40;18.25;;;;;;;;;;5031150;28;20029;-63
2021/09/26 04:40:13;;;;;;;28.77;18.48;;;;;;;;;;5031160;28;20124;-62
2021/09/26 04:42:39;;;;;;;30.30;19.33;;;;;;;;;;5031489;28;20040;-62
2021/09/26 04:45:08;;;;;;;30.80;19.27;;;;;;;;;;5031246;28;20030;-63
2021/09/26 04:47:34;;;;;;;28.50;17.58;;;;;;;;;;5031235;28;20018;-64
2021/09/26 04:50:00;;;;;;;29.77;18.48;;;;;;;;;;5030898;28;20041;-63
2021/09/26 04:52:26;;;;;;;30.08;19.00;;;;;;;;;;5031180;28;20529;-62
2021/09/26 04:54:52;;;;;;;31.05;18.48;;;;;;;;;;5013368;28;20025;-63
2021/09/26 04:57:17;;;;;;;30.50;18.92;;;;;;;;;;5031292;28;20079;-63
2021/09/26 04:59:45;;;;;;;30.40;19.80;;;;;;;;;;5030974;28;20025;-62
2021/09/26 05:02:11;;;;;;;29.10;19.25;;;;;;;;;;5031151;28;20109;-62
2021/09/26 05:04:37;;;;;;;26.55;16.60;;;;;;;;;;5012518;28;20630;-62
2021/09/26 05:07:03;;;;;;;30.13;18.85;;;;;;;;;;5040440;28;20101;-62
2021/09/26 05:09:29;;;;;;;28.25;18.23;;;;;;;;;;5032582;28;20095;-62
2021/09/26 05:11:55;;;;;;;27.38;16.48;;;;;;;;;;5050834;22;20075;-60
2021/09/26 05:14:21;;;;;;;27.70;16.77;;;;;;;;;;5031609;28;20494;-60
2021/09/26 05:16:48;;;;;;;27.80;16.25;;;;;;;;;;5033871;28;20543;-60
2021/09/26 05:19:14;;;;;;;26.98;15.73;;;;;;;;;;5035826;28;20074;-60
2021/09/26 05:21:40;;;;;;;27.75;17.25;;;;;;;;;;5038909;28;20037;-61
2021/09/26 05:24:06;;;;;;;27.25;17.70;;;;;;;;;;5038118;28;20033;-59
2021/09/26 05:26:41;;;;;;;27.52;16.70;;;;;;;;;;5037946;28;20039;-59
2021/09/26 05:29:07;;;;;;;29.00;17.52;;;;;;;;;;5055533;28;20485;-59
2021/09/26 05:31:34;;;;;;;26.67;16.27;;;;;;;;;;5055633;28;20029;-59
2021/09/26 05:34:00;;;;;;;27.00;16.80;;;;;;;;;;5055633;28;20029;-59
2021/09/26 05:36:26;;;;;;;32.00;18.88;;;;;;;;;;5055648;28;20021;-59
2021/09/26 05:38:52;;;;;;;32.35;19.50;;;;;;;;;;5033261;28;20105;-59
2021/09/26 05:41:18;;;;;;;33.03;22.38;;;;;;;;;;5017793;28;20028;-60
2021/09/26 05:43:45;;;;;;;35.53;24.75;;;;;;;;;;5017564;28;20052;-59
2021/09/26 05:46:11;;;;;;;33.47;23.48;;;;;;;;;;5035590;28;20033;-59
2021/09/26 05:48:37;;;;;;;26.15;16.92;;;;;;;;;;5017552;28;20049;-58
2021/09/26 05:51:03;;;;;;;27.13;15.93;;;;;;;;;;5018381;28;20029;-59
2021/09/26 05:53:29;;;;;;;26.70;16.17;;;;;;;;;;5017823;28;20117;-59
2021/09/26 05:55:55;;;;;;;25.08;15.27;;;;;;;;;;5017546;28;20572;-59
2021/09/26 05:58:21;;;;;;;25.98;15.65;;;;;;;;;;5035001;28;20033;-59
2021/09/26 06:00:47;;;;;;;27.70;16.23;;;;;;;;;;5035106;28;20053;-59
2021/09/26 06:03:14;;;;;;;27.95;17.23;;;;;;;;;;5035091;28;20068;-59
2021/09/26 06:05:41;;;;;;;26.67;16.65;;;;;;;;;;5035265;28;20025;-57
2021/09/26 06:08:07;;;;;;;26.88;16.48;;;;;;;;;;5034980;28;20508;-60
2021/09/26 06:10:33;;;;;;;25.25;14.52;;;;;;;;;;5034939;28;20037;-59
2021/09/26 06:12:59;;;;;;;25.25;15.25;;;;;;;;;;5035051;28;20028;-59
2021/09/26 06:15:25;;;;;;;27.30;17.20;;;;;;;;;;5017405;28;20133;-56
2021/09/26 06:17:51;;;;;;;26.88;15.52;;;;;;;;;;5017182;28;20079;-59
2021/09/26 06:20:17;;;;;;;27.02;16.30;;;;;;;;;;5034502;28;20033;-59
2021/09/26 06:22:43;;;;;;;26.73;16.60;;;;;;;;;;5034929;28;20041;-58
2021/09/26 06:25:10;;;;;;;24.98;14.57;;;;;;;;;;5034860;28;20033;-58
2021/09/26 06:27:36;;;;;;;28.10;16.75;;;;;;;;;;5034531;28;20477;-58
2021/09/26 06:30:03;;;;;;;26.65;16.30;;;;;;;;;;5034226;28;20095;-59
2021/09/26 06:32:31;;;;;;;23.55;14.65;;;;;;;;;;5034471;28;20040;-58
2021/09/26 06:34:58;;;;;;;24.23;14.85;;;;;;;;;;5034501;28;20041;-58
2021/09/26 06:37:24;;;;;;;25.92;14.52;;;;;;;;;;5034711;28;20112;-59
2021/09/26 06:39:50;;;;;;;23.20;14.20;;;;;;;;;;5035815;28;20041;-57
2021/09/26 06:42:17;;;;;;;23.75;14.32;;;;;;;;;;5036876;28;20488;-62
2021/09/26 06:44:43;;;;;;;25.75;14.50;;;;;;;;;;5036859;28;20067;-63
2021/09/26 06:47:09;;;;;;;22.75;13.25;;;;;;;;;;5054472;28;20040;-62
2021/09/26 06:49:35;;;;;;;23.13;13.43;;;;;;;;;;5054257;28;20032;-62
2021/09/26 06:52:00;;;;;;;23.65;14.00;;;;;;;;;;5054125;28;20083;-62
2021/09/26 06:54:26;;;;;;;22.33;13.25;;;;;;;;;;5036494;28;20033;-63
2021/09/26 06:56:55;;;;;;;23.40;13.63;;;;;;;;;;5054193;28;20029;-62
2021/09/26 06:59:21;;;;;;;22.60;12.68;;;;;;;;;;5054039;28;20434;-64
2021/09/26 07:01:47;;;;;;;21.05;13.30;;;;;;;;;;5054053;28;20017;-64
2021/09/26 07:04:16;;;;;;;22.88;13.50;;;;;;;;;;5036459;28;20558;-64
2021/09/26 07:06:42;;;;;;;21.38;13.05;;;;;;;;;;5052505;28;20021;-62
2021/09/26 07:09:08;;;;;;;21.75;12.75;;;;;;;;;;5033818;28;20031;-63
2021/09/26 07:11:34;;;;;;;23.33;12.63;;;;;;;;;;5033595;28;20033;-63
2021/09/26 07:14:03;;;;;;;22.23;12.90;;;;;;;;;;5033606;28;20025;-62
2021/09/26 07:16:29;;;;;;;22.55;12.70;;;;;;;;;;5033780;28;20021;-63
2021/09/26 07:18:55;;;;;;;27.20;13.77;;;;;;;;;;5033430;28;20022;-63
2021/09/26 07:21:21;;;;;;;21.27;12.80;;;;;;;;;;5015736;28;20040;-61
2021/09/26 07:23:48;;;;;;;23.40;13.73;;;;;;;;;;5015843;28;20025;-61
2021/09/26 07:26:14;;;;;;;23.67;12.50;;;;;;;;;;5033677;28;20104;-61
2021/09/26 07:28:40;;;;;;;20.75;12.23;;;;;;;;;;5033192;28;20029;-61
2021/09/26 07:31:06;;;;;;;20.25;12.30;;;;;;;;;;5015499;28;20036;-61
2021/09/26 07:33:32;;;;;;;19.88;12.32;;;;;;;;;;5015419;28;20429;-61
2021/09/26 07:35:58;;;;;;;20.33;11.75;;;;;;;;;;5015941;28;20485;-61
2021/09/26 07:38:24;;;;;;;21.55;12.23;;;;;;;;;;5032863;28;20075;-63
2021/09/26 07:40:50;;;;;;;20.65;12.02;;;;;;;;;;5033233;28;20482;-62
2021/09/26 07:43:16;;;;;;;21.45;12.93;;;;;;;;;;5015469;28;20074;-62
2021/09/26 07:45:42;;;;;;;22.23;13.63;;;;;;;;;;5015468;28;20503;-62
2021/09/26 07:48:08;;;;;;;20.70;12.98;;;;;;;;;;5032790;28;20033;-62
2021/09/26 07:50:34;;;;;;;20.70;12.65;;;;;;;;;;5033101;28;20036;-62
2021/09/26 07:53:00;;;;;;;22.75;13.70;;;;;;;;;;5033171;28;20470;-61
2021/09/26 07:55:26;;;;;;;24.40;16.17;;;;;;;;;;5033114;28;20112;-62
2021/09/26 07:57:52;;;;;;;25.02;14.15;;;;;;;;;;5014241;28;20120;-60
2021/09/26 08:00:19;;;;;;;21.92;13.77;;;;;;;;;;5032440;28;20420;-61
2021/09/26 08:02:44;;;;;;;21.80;13.88;;;;;;;;;;5032878;28;20022;-64
2021/09/26 08:05:11;;;;;;;25.23;16.02;;;;;;;;;;5032856;28;20030;-62
2021/09/26 08:07:38;;;;;;;23.50;14.55;;;;;;;;;;5032152;28;20024;-61
2021/09/26 08:10:05;;;;;;;21.25;12.88;;;;;;;;;;5032530;28;20025;-63
2021/09/26 08:12:31;;;;;;;22.05;13.02;;;;;;;;;;5015105;28;20037;-63
2021/09/26 08:14:57;;;;;;;23.88;14.50;;;;;;;;;;5032115;28;20076;-67
2021/09/26 08:17:23;;;;;;;22.92;13.65;;;;;;;;;;5015523;28;20025;-64
2021/09/26 08:19:50;;;;;;;20.92;13.18;;;;;;;;;;5014661;28;20022;-68
2021/09/26 08:22:16;;;;;;;21.17;12.98;;;;;;;;;;5014914;28;20468;-64
2021/09/26 08:24:42;;;;;;;19.48;11.80;;;;;;;;;;5015038;28;20034;-64
2021/09/26 08:27:08;;;;;;;22.55;13.02;;;;;;;;;;5032483;28;20673;-65
2021/09/26 08:29:34;;;;;;;20.80;12.88;;;;;;;;;;5032103;28;20029;-64
2021/09/26 08:32:00;;;;;;;20.65;12.43;;;;;;;;;;5032277;28;20028;-66
2021/09/26 08:34:26;;;;;;;19.70;11.73;;;;;;;;;;5031720;28;20108;-65
2021/09/26 08:36:53;;;;;;;20.83;12.25;;;;;;;;;;5032150;28;20053;-65
2021/09/26 08:39:19;;;;;;;22.90;14.00;;;;;;;;;;5014698;28;20034;-65
2021/09/26 08:41:50;;;;;;;20.65;11.90;;;;;;;;;;5032211;28;20021;-64
2021/09/26 08:44:16;;;;;;;21.58;12.40;;;;;;;;;;5032079;28;20068;-65
2021/09/26 08:46:42;;;;;;;21.85;11.38;;;;;;;;;;5032295;28;20083;-65
2021/09/26 08:49:08;;;;;;;21.63;11.23;;;;;;;;;;5031990;28;20029;-64
2021/09/26 08:51:34;;;;;;;19.45;11.18;;;;;;;;;;5014218;28;20437;-65
2021/09/26 08:54:00;;;;;;;21.58;11.52;;;;;;;;;;5031974;28;20541;-67
2021/09/26 08:56:39;;;;;;;20.73;11.93;;;;;;;;;;5014213;28;20489;-64
2021/09/26 08:59:05;;;;;;;21.50;11.90;;;;;;;;;;5031877;28;20021;-64
2021/09/26 09:01:31;;;;;;;19.67;11.73;;;;;;;;;;5032021;28;20029;-64
2021/09/26 09:03:57;;;;;;;20.55;11.00;;;;;;;;;;5014174;28;20509;-65
2021/09/26 09:06:42;;;;;;;23.45;12.32;;;;;;;;;;5031774;28;20108;-65
2021/09/26 09:09:15;;;;;;;27.27;11.55;;;;;;;;;;5013866;28;20025;-65
2021/09/26 09:12:01;;;;;;;19.15;10.77;;;;;;;;;;5031937;28;20071;-64
2021/09/26 09:14:27;;;;;;;19.73;11.73;;;;;;;;;;5031654;28;20445;-64
2021/09/26 09:16:54;;;;;;;21.52;11.48;;;;;;;;;;5014140;28;20136;-64
2021/09/26 09:19:21;;;;;;;20.42;11.82;;;;;;;;;;5031526;28;20358;-63
2021/09/26 09:22:03;;;;;;;21.27;12.02;;;;;;;;;;5031525;28;20026;-63
2021/09/26 09:24:28;;;;;;;20.33;11.43;;;;;;;;;;5031555;28;20057;-63
2021/09/26 09:26:55;;;;;;;21.25;11.40;;;;;;;;;;5031523;28;20076;-63
2021/09/26 09:29:23;;;;;;;19.95;10.77;;;;;;;;;;5031177;28;20021;-63
2021/09/26 09:31:50;;;;;;;21.75;11.82;;;;;;;;;;5031120;28;20036;-63
2021/09/26 09:34:36;;;;;;;22.55;11.40;;;;;;;;;;5030889;28;20025;-63
2021/09/26 09:37:09;;;;;;;20.58;11.60;;;;;;;;;;5013630;28;20432;-63
2021/09/26 09:39:35;;;;;;;23.83;12.32;;;;;;;;;;5031101;28;20096;-63
2021/09/26 09:42:15;;;;;;;21.08;12.45;;;;;;;;;;5031354;28;20119;-63
2021/09/26 09:44:41;;;;;;;21.05;11.90;;;;;;;;;;5031488;28;20073;-63
2021/09/26 09:47:07;;;;;;;22.30;12.27;;;;;;;;;;5031820;28;20028;-62
2021/09/26 09:49:34;;;;;;;20.55;12.18;;;;;;;;;;5030969;28;20104;-62
2021/09/26 09:52:01;;;;;;;20.35;11.73;;;;;;;;;;5031030;28;20026;-62
2021/09/26 09:54:33;;;;;;;20.55;11.20;;;;;;;;;;5013441;28;20030;-62
2021/09/26 09:57:12;;;;;;;20.23;11.75;;;;;;;;;;5012805;28;20021;-62
2021/09/26 09:59:38;;;;;;;24.85;13.15;;;;;;;;;;4664851;28;10000236;-64
2021/09/26 10:02:04;;;;;;;19.35;12.00;;;;;;;;;;5029197;28;20036;-61
2021/09/26 10:04:37;;;;;;;20.80;11.88;;;;;;;;;;5013711;28;20021;-62
2021/09/26 10:07:17;;;;;;;21.27;12.52;;;;;;;;;;5023622;28;20088;-64
2021/09/26 10:09:43;;;;;;;18.73;11.27;;;;;;;;;;5040241;28;20025;-63
2021/09/26 10:12:18;;;;;;;21.40;12.43;;;;;;;;;;5021594;28;20099;-62
2021/09/26 10:14:44;;;;;;;21.15;11.50;;;;;;;;;;5023148;28;20036;-63
2021/09/26 10:17:10;;;;;;;19.73;11.23;;;;;;;;;;5033967;28;20098;-63
2021/09/26 10:19:37;;;;;;;21.98;12.52;;;;;;;;;;5013908;28;20075;-63
2021/09/26 10:22:03;;;;;;;21.20;12.48;;;;;;;;;;5031600;28;20361;-63
2021/09/26 10:24:31;;;;;;;19.40;12.13;;;;;;;;;;5031282;28;20108;-62
2021/09/26 10:26:58;;;;;;;21.90;13.07;;;;;;;;;;5013919;28;20510;-62
2021/09/26 10:29:27;;;;;;;21.65;11.40;;;;;;;;;;5031517;28;20462;-63
2021/09/26 10:31:53;;;;;;;20.08;11.77;;;;;;;;;;5016221;28;20152;-63
2021/09/26 10:34:21;;;;;;;22.77;11.30;;;;;;;;;;5033815;28;20080;-63
2021/09/26 10:36:47;;;;;;;22.37;11.67;;;;;;;;;;5034629;28;20025;-63
2021/09/26 10:39:14;;;;;;;21.88;13.70;;;;;;;;;;5033980;28;20060;-63
2021/09/26 10:41:59;;;;;;;19.80;11.82;;;;;;;;;;5034228;28;20032;-64
2021/09/26 10:44:26;;;;;;;20.23;11.77;;;;;;;;;;5033979;28;20026;-63
2021/09/26 10:47:08;;;;;;;18.80;11.55;;;;;;;;;;4689652;28;10000314;-63
2021/09/26 10:49:41;;;;;;;18.52;10.63;;;;;;;;;;5030631;28;20101;-63
2021/09/26 10:52:22;;;;;;;19.13;11.23;;;;;;;;;;5036406;28;20029;-63
2021/09/26 10:54:48;;;;;;;20.85;11.82;;;;;;;;;;5022042;28;20520;-61
2021/09/26 10:57:18;;;;;;;19.73;11.90;;;;;;;;;;5040202;28;20037;-62
2021/09/26 10:59:45;;;;;;;19.48;10.98;;;;;;;;;;5047446;28;20021;-61
2021/09/26 11:02:20;;;;;;;19.20;12.13;;;;;;;;;;5032460;28;20031;-59
2021/09/26 11:04:47;;;;;;;18.63;11.30;;;;;;;;;;5050912;28;20729;-62
2021/09/26 11:07:27;;;;;;;19.05;11.48;;;;;;;;;;5045634;28;20079;-62
2021/09/26 11:10:04;;;;;;;20.17;11.52;;;;;;;;;;5030897;28;20031;-63
2021/09/26 11:12:38;;;;;;;19.67;11.60;;;;;;;;;;5069484;22;20053;-67
2021/09/26 11:15:05;;;;;;;20.63;13.15;;;;;;;;;;5046624;28;20037;-67
2021/09/26 11:17:45;;;;;;;18.45;11.57;;;;;;;;;;5031748;28;20017;-66
2021/09/26 11:20:12;;;;;;;20.50;12.43;;;;;;;;;;5049068;28;20032;-67
2021/09/26 11:22:38;;;;;;;18.77;12.38;;;;;;;;;;5031822;28;20106;-66
2021/09/26 11:25:05;;;;;;;20.42;12.90;;;;;;;;;;5029340;28;20493;-65
2021/09/26 11:27:32;;;;;;;20.40;11.45;;;;;;;;;;5029807;28;20068;-64
2021/09/26 11:30:12;;;;;;;18.10;12.70;;;;;;;;;;5032268;28;20021;-63
2021/09/26 11:32:38;;;;;;;18.88;12.50;;;;;;;;;;5013787;28;20025;-66
2021/09/26 11:35:06;;;;;;;20.35;13.27;;;;;;;;;;5031634;28;20100;-65
2021/09/26 11:37:38;;;;;;;19.00;13.15;;;;;;;;;;5014552;28;20032;-67
2021/09/26 11:40:07;;;;;;;19.25;13.55;;;;;;;;;;5013776;28;20033;-68
2021/09/26 11:42:36;;;;;;;18.55;13.32;;;;;;;;;;5032312;28;20022;-67
2021/09/26 11:45:05;;;;;;;17.80;12.65;;;;;;;;;;5032332;28;20025;-66
2021/09/26 11:47:31;;;;;;;19.33;12.10;;;;;;;;;;4666791;28;9999712;-68
2021/09/26 11:50:08;;;;;;;19.65;12.55;;;;;;;;;;5028821;28;20057;-66
2021/09/26 11:52:37;;;;;;;19.98;12.85;;;;;;;;;;5029045;28;20514;-71
2021/09/26 11:55:04;;;;;;;18.25;11.45;;;;;;;;;;5011451;28;20029;-68
2021/09/26 11:57:30;;;;;;;19.38;12.23;;;;;;;;;;5029350;28;20061;-67
2021/09/26 11:59:56;;;;;;;17.70;11.88;;;;;;;;;;5011337;28;20075;-67
2021/09/26 12:02:22;;;;;;;18.98;12.18;;;;;;;;;;5011149;28;20029;-66
2021/09/26 12:04:48;;;;;;;19.48;12.23;;;;;;;;;;5010814;28;20112;-65
2021/09/26 12:07:14;;;;;;;19.08;12.57;;;;;;;;;;5028580;28;20021;-67
2021/09/26 12:09:42;;;;;;;17.65;12.10;;;;;;;;;;5010957;28;20024;-66
2021/09/26 12:12:15;;;;;;;19.52;12.85;;;;;;;;;;5010860;28;20041;-65
2021/09/26 12:14:45;;;;;;;19.02;13.82;;;;;;;;;;5010810;28;20033;-67
2021/09/26 12:17:13;;;;;;;19.98;12.15;;;;;;;;;;5028470;28;20026;-68
2021/09/26 12:19:39;;;;;;;18.15;12.80;;;;;;;;;;5010681;28;20022;-67
2021/09/26 12:22:07;;;;;;;18.05;12.55;;;;;;;;;;5011037;28;20045;-66
2021/09/26 12:24:35;;;;;;;17.42;13.00;;;;;;;;;;5010846;28;20030;-68
2021/09/26 12:27:01;;;;;;;;;;;;;;;;;;5019610;28;20409;-66
2021/09/26 12:29:29;;;;;;;18.85;13.25;;;;;;;;;;5047135;28;19908;-67
2021/09/26 12:31:57;;;;;;;18.30;12.90;;;;;;;;;;5028774;28;20029;-68
2021/09/26 12:34:40;;;;;;;18.05;12.88;;;;;;;;;;5048198;28;20222;-67
2021/09/26 12:37:14;;;;;;;18.98;12.98;;;;;;;;;;5048330;28;20100;-67
2021/09/26 12:39:44;;;;;;;19.85;12.82;;;;;;;;;;5029887;28;20071;-67
2021/09/26 12:42:17;;;;;;;20.17;12.90;;;;;;;;;;5047954;28;20024;-66
2021/09/26 12:44:43;;;;;;;17.63;12.43;;;;;;;;;;5048045;28;20076;-66
2021/09/26 12:47:15;;;;;;;17.42;12.55;;;;;;;;;;5048084;28;20028;-65
2021/09/26 12:49:41;;;;;;;18.45;12.50;;;;;;;;;;5047647;28;20035;-68
2021/09/26 12:52:10;;;;;;;19.23;12.55;;;;;;;;;;5029986;28;20485;-65
2021/09/26 12:54:37;;;;;;;17.52;13.02;;;;;;;;;;5047721;28;20040;-67
2021/09/26 12:57:10;;;;;;;19.02;12.07;;;;;;;;;;5047758;28;20460;-68
2021/09/26 12:59:37;;;;;;;18.13;12.23;;;;;;;;;;5047922;28;20025;-67
2021/09/26 13:02:13;;;;;;;19.08;12.70;;;;;;;;;;5030202;28;20049;-68
2021/09/26 13:04:42;;;;;;;18.20;12.38;;;;;;;;;;5029909;28;20021;-68
2021/09/26 13:07:08;;;;;;;;;;;;;;;;;;5025727;28;20028;-68
2021/09/26 13:09:38;;;;;;;18.33;12.10;;;;;;;;;;5027626;28;20365;-67
2021/09/26 13:12:22;;;;;;;19.13;12.13;;;;;;;;;;5027924;28;20390;-67
2021/09/26 13:15:03;;;;;;;18.02;12.40;;;;;;;;;;5027743;28;20022;-67
2021/09/26 13:17:32;;;;;;;18.67;12.10;;;;;;;;;;5010519;28;20025;-67
2021/09/26 13:19:59;;;;;;;17.75;12.13;;;;;;;;;;5010128;28;20034;-67
2021/09/26 13:22:27;;;;;;;16.65;11.63;;;;;;;;;;5010379;28;20038;-67
2021/09/26 13:24:54;;;;;;;17.20;12.13;;;;;;;;;;5028240;28;20040;-67
2021/09/26 13:27:20;;;;;;;17.85;12.68;;;;;;;;;;5010495;28;20072;-67
2021/09/26 13:29:47;;;;;;;17.15;11.90;;;;;;;;;;5027851;28;20034;-67
2021/09/26 13:32:24;;;;;;;18.15;12.50;;;;;;;;;;5010351;28;20033;-67
2021/09/26 13:34:59;;;;;;;17.27;11.60;;;;;;;;;;5010453;28;20037;-68
2021/09/26 13:37:25;;;;;;;16.80;11.63;;;;;;;;;;5031798;28;20026;-66
2021/09/26 19:08:14;;;;;;;20.95;9.05;;;;;;;;;;4711623;27;10001405;-63
2021/09/26 19:10:44;;;;;;;20.33;8.50;;;;;;;;;;5061757;28;20097;-63
2021/09/26 19:13:17;;;;;;;23.85;10.13;;;;;;;;;;5061775;28;20021;-63
2021/09/26 19:15:44;;;;;;;17.15;8.30;;;;;;;;;;5046758;28;20029;-64
2021/09/26 19:18:10;;;;;;;21.23;8.38;;;;;;;;;;5040970;28;20048;-63
2021/09/26 19:20:36;;;;;;;20.05;10.13;;;;;;;;;;5071361;22;20048;-63
2021/09/26 19:23:02;;;;;;;20.52;10.15;;;;;;;;;;5067616;28;20029;-63
2021/09/26 19:25:31;;;;;;;22.58;9.45;;;;;;;;;;5047784;28;20045;-63
2021/09/26 19:27:58;;;;;;;27.25;10.80;;;;;;;;;;5066092;28;20054;-62
2021/09/26 19:30:25;;;;;;;21.00;8.77;;;;;;;;;;5039072;28;20055;-64
2021/09/26 19:32:52;;;;;;;19.77;11.00;;;;;;;;;;5046161;28;20504;-63
2021/09/26 19:35:22;;;;;;;20.80;10.13;;;;;;;;;;5027615;28;20083;-56
2021/09/26 19:37:48;;;;;;;22.88;10.80;;;;;;;;;;5045806;28;20039;-63
2021/09/26 19:40:15;;;;;;;17.83;8.63;;;;;;;;;;5027737;28;20493;-64
2021/09/26 19:42:41;;;;;;;20.58;8.70;;;;;;;;;;5028195;28;20104;-63
2021/09/26 19:45:08;;;;;;;17.80;8.70;;;;;;;;;;5045940;28;20111;-64
2021/09/26 19:47:34;;;;;;;19.75;8.88;;;;;;;;;;5045899;28;20349;-63
2021/09/26 19:50:00;;;;;;;20.25;8.45;;;;;;;;;;5027972;28;20457;-64
2021/09/26 19:52:26;;;;;;;21.67;9.85;;;;;;;;;;5045742;28;20820;-64